createdAt,value
2018-11-29T00:00:33.557Z,30.97
2018-11-29T00:03:01.995Z,21.83
2018-11-29T00:05:30.328Z,24.00
2018-11-29T00:07:58.673Z,28.00
2018-11-29T00:10:27.097Z,28.70
2018-11-29T00:12:56.441Z,28.10
2018-11-29T00:15:24.808Z,25.43
2018-11-29T00:17:54.148Z,26.90
2018-11-29T00:20:22.541Z,24.97
2018-11-29T00:22:51.447Z,30.07
2018-11-29T00:25:20.127Z,24.90
2018-11-29T00:27:48.734Z,27.70
2018-11-29T00:30:20.996Z,26.80
2018-11-29T00:32:49.811Z,28.33
2018-11-29T00:35:18.450Z,29.10
2018-11-29T00:37:46.987Z,27.50
2018-11-29T00:40:17.190Z,29.20
2018-11-29T00:42:45.636Z,27.67
2018-11-29T00:45:15.724Z,26.13
2018-11-29T00:47:44.794Z,31.60
2018-11-29T00:50:14.620Z,27.20
2018-11-29T00:52:43.911Z,25.83
2018-11-29T00:55:14.391Z,29.43
2018-11-29T00:57:42.765Z,29.73
2018-11-29T01:00:14.123Z,23.60
2018-11-29T01:02:42.584Z,28.13
2018-11-29T01:05:10.990Z,29.43
2018-11-29T01:07:39.549Z,25.47
2018-11-29T01:10:11.873Z,25.80
2018-11-29T01:12:41.383Z,25.83
2018-11-29T01:15:11.788Z,28.60
2018-11-29T01:17:40.346Z,29.97
2018-11-29T01:20:10.070Z,25.13
2018-11-29T01:22:38.443Z,33.37
2018-11-29T01:25:08.195Z,27.97
2018-11-29T01:27:36.539Z,26.17
2018-11-29T01:30:06.959Z,26.80
2018-11-29T01:32:35.317Z,27.23
2018-11-29T01:35:03.725Z,31.03
2018-11-29T01:37:32.289Z,22.37
2018-11-29T01:40:00.664Z,23.40
2018-11-29T01:42:29.037Z,28.07
2018-11-29T01:44:57.427Z,24.53
2018-11-29T01:47:25.768Z,28.07
2018-11-29T01:49:54.213Z,32.70
2018-11-29T01:52:22.546Z,30.27
2018-11-29T01:54:51.720Z,29.77
2018-11-29T01:57:20.054Z,32.23
2018-11-29T01:59:48.418Z,26.20
2018-11-29T02:02:16.852Z,31.80
2018-11-29T02:04:45.211Z,29.93
2018-11-29T02:07:13.783Z,26.60
2018-11-29T02:09:42.580Z,29.10
2018-11-29T02:12:10.962Z,25.00
2018-11-29T02:14:39.379Z,39.33
2018-11-29T02:17:07.788Z,31.10
2018-11-29T10:33:50.074Z,18.47
2018-11-29T10:36:18.386Z,22.70
2018-11-29T10:38:46.701Z,19.53
2018-11-29T10:41:15.105Z,18.50
2018-11-29T10:43:43.505Z,20.97
2018-11-29T10:46:11.875Z,18.07
2018-11-29T10:48:40.508Z,21.67
2018-11-29T10:51:08.892Z,17.20
2018-11-29T10:53:38.174Z,20.97
2018-11-29T10:56:05.676Z,19.83
2018-11-29T10:58:34.008Z,18.33
2018-11-29T11:01:07.771Z,20.53
2018-11-29T11:03:36.137Z,20.77
2018-11-29T11:06:04.512Z,22.03
2018-11-29T11:08:32.862Z,21.47
2018-11-29T11:11:06.549Z,19.53
2018-11-29T11:13:35.653Z,20.53
2018-11-29T11:16:03.989Z,22.50
2018-11-29T11:18:32.415Z,20.93
2018-11-29T11:21:00.732Z,21.47
2018-11-29T11:23:29.088Z,18.30
2018-11-29T11:25:57.480Z,20.30
2018-11-29T11:28:25.857Z,19.80
2018-11-29T11:30:54.293Z,20.43
2018-11-29T11:33:22.672Z,18.53
2018-11-29T11:35:51.039Z,19.93
2018-11-29T11:38:19.413Z,18.97
2018-11-29T11:40:47.897Z,20.77
2018-11-29T11:43:16.637Z,18.23
2018-11-29T11:45:47.647Z,20.33
2018-11-29T11:48:16.245Z,19.23
2018-11-29T11:50:47.606Z,17.17
2018-11-29T11:53:16.300Z,18.73
2018-11-29T11:55:44.969Z,16.50
2018-11-29T11:58:13.350Z,19.57
2018-11-29T12:00:41.756Z,16.93
2018-11-29T12:03:13.881Z,18.30
2018-11-29T12:05:42.255Z,17.53
2018-11-29T12:08:10.697Z,18.70
2018-11-29T12:10:40.141Z,17.23
2018-11-29T12:13:08.635Z,19.67
2018-11-29T12:15:37.747Z,20.20
2018-11-29T12:18:08.184Z,15.00
2018-11-29T12:20:36.564Z,21.10
2018-11-29T12:23:05.272Z,17.40
2018-11-29T12:25:33.680Z,15.27
2018-11-29T12:28:02.287Z,17.03
2018-11-29T12:30:32.096Z,18.77
2018-11-29T12:33:01.714Z,14.03
2018-11-29T12:35:30.223Z,15.97
2018-11-29T12:37:58.572Z,15.17
2018-11-29T12:40:27.318Z,17.83
2018-11-29T12:42:55.713Z,16.53
2018-11-29T12:45:25.365Z,16.37
2018-11-29T12:47:53.956Z,15.83
2018-11-29T12:50:23.729Z,15.63
2018-11-29T12:52:52.110Z,14.90
2018-11-29T12:55:23.653Z,15.20
2018-11-29T12:58:04.376Z,15.90
2018-11-29T13:00:22.056Z,13.83
2018-11-29T13:02:52.541Z,14.10
2018-11-29T13:05:21.013Z,15.87
2018-11-29T13:07:49.432Z,17.13
2018-11-29T13:10:18.809Z,15.70
2018-11-29T13:12:47.487Z,15.13
2018-11-29T13:15:24.141Z,14.47
2018-11-29T13:17:52.632Z,13.60
2018-11-29T13:20:21.056Z,13.43
2018-11-29T13:22:50.852Z,14.53
2018-11-29T13:25:21.269Z,15.33
2018-11-29T13:27:49.867Z,15.77
2018-11-29T13:30:20.983Z,13.67
2018-11-29T13:32:51.275Z,17.07
2018-11-29T13:35:26.846Z,13.80
2018-11-29T13:37:56.556Z,13.50
2018-11-29T13:40:25.045Z,13.80
2018-11-29T13:42:53.455Z,16.33
2018-11-29T13:45:21.935Z,15.67
2018-11-29T13:47:50.404Z,17.33
2018-11-29T13:50:18.887Z,14.33
2018-11-29T13:52:47.309Z,16.80
2018-11-29T13:55:16.357Z,13.70
2018-11-29T13:57:48.013Z,12.83
2018-11-29T14:00:17.422Z,14.17
2018-11-29T14:02:47.313Z,12.93
2018-11-29T14:05:15.603Z,13.40
2018-11-29T14:07:43.995Z,14.53
2018-11-29T14:10:13.724Z,15.93
2018-11-29T14:12:42.109Z,12.37
2018-11-29T14:15:13.772Z,14.57
2018-11-29T14:17:42.351Z,12.57
2018-11-29T14:20:11.831Z,11.63
2018-11-29T14:22:40.252Z,14.57
2018-11-29T14:25:10.896Z,14.87
2018-11-29T14:27:39.629Z,12.10
2018-11-29T14:30:15.321Z,12.43
2018-11-29T14:32:43.711Z,13.03
2018-11-29T14:35:12.168Z,13.07
2018-11-29T14:37:40.754Z,12.40
2018-11-29T14:40:11.491Z,13.17
2018-11-29T14:42:39.911Z,14.97
2018-11-29T14:45:09.986Z,12.33
2018-11-29T14:47:38.396Z,13.57
2018-11-29T14:50:11.081Z,14.50
2018-11-29T14:52:39.454Z,13.30
2018-11-29T14:55:09.485Z,11.73
2018-11-29T14:57:37.876Z,12.37
2018-11-29T15:00:08.793Z,15.27
2018-11-29T15:02:37.212Z,11.33
2018-11-29T15:05:11.958Z,14.07
2018-11-29T15:07:40.637Z,12.63
2018-11-29T15:10:09.956Z,11.80
2018-11-29T15:12:38.503Z,14.67
2018-11-29T15:15:09.081Z,15.10
2018-11-29T15:17:38.487Z,12.50
2018-11-29T15:20:12.755Z,13.87
2018-11-29T15:22:41.171Z,11.97
2018-11-29T15:25:09.521Z,10.67
2018-11-29T15:27:37.876Z,14.80
2018-11-29T15:30:14.473Z,11.83
2018-11-29T15:32:42.937Z,12.23
2018-11-29T15:35:11.326Z,11.67
2018-11-29T15:37:39.756Z,11.73
2018-11-29T15:40:13.329Z,13.20
2018-11-29T15:42:41.765Z,10.20
2018-11-29T15:45:13.457Z,12.63
2018-11-29T15:47:41.848Z,10.90
2018-11-29T15:50:11.684Z,13.17
2018-11-29T15:52:40.125Z,11.53
2018-11-29T15:55:13.992Z,13.77
2018-11-29T15:57:43.880Z,9.97
2018-11-29T16:00:18.335Z,10.90
2018-11-29T16:02:47.515Z,10.43
2018-11-29T16:05:15.832Z,8.63
2018-11-29T16:07:44.225Z,10.70
2018-11-29T16:10:14.521Z,11.37
2018-11-29T16:12:42.916Z,10.13
2018-11-29T16:15:13.585Z,11.27
2018-11-29T16:17:42.251Z,11.67
2018-11-29T16:20:12.958Z,10.93
2018-11-29T16:22:41.341Z,10.93
2018-11-29T16:25:10.899Z,12.73
2018-11-29T16:27:39.319Z,9.83
2018-11-29T16:30:16.122Z,10.57
2018-11-29T16:32:44.477Z,12.90
2018-11-29T16:35:12.856Z,10.97
2018-11-29T16:37:41.226Z,9.10
2018-11-29T16:40:09.692Z,11.20
2018-11-29T16:42:38.041Z,13.40
2018-11-29T16:45:12.540Z,10.13
2018-11-29T16:47:41.274Z,10.17
2018-11-29T16:50:14.891Z,7.77
2018-11-29T16:52:43.276Z,10.93
2018-11-29T16:55:12.320Z,11.67
2018-11-29T16:57:42.455Z,14.67
2018-11-29T17:00:13.275Z,11.17
2018-11-29T17:02:41.703Z,10.00
2018-11-29T17:05:11.888Z,8.87
2018-11-29T17:07:40.292Z,10.87
2018-11-29T17:10:11.228Z,11.97
2018-11-29T17:12:39.665Z,11.40
2018-11-29T17:15:13.906Z,9.47
2018-11-29T17:17:42.674Z,8.93
2018-11-29T17:20:14.863Z,7.93
2018-11-29T17:22:43.417Z,10.27
2018-11-29T17:25:12.558Z,8.13
2018-11-29T17:27:40.996Z,6.70
2018-11-29T17:30:19.516Z,8.43
2018-11-29T17:32:48.452Z,8.63
2018-11-29T17:35:16.804Z,9.40
2018-11-29T17:37:45.129Z,9.87
2018-11-29T17:40:14.648Z,8.53
2018-11-29T17:42:43.054Z,8.90
2018-11-29T17:45:14.745Z,7.50
2018-11-29T17:47:43.847Z,7.13
2018-11-29T17:50:14.854Z,8.03
2018-11-29T17:52:43.163Z,6.77
2018-11-29T17:55:11.527Z,6.77
2018-11-29T17:57:40.012Z,7.07
2018-11-29T18:00:12.930Z,6.27
2018-11-29T18:02:41.412Z,6.07
2018-11-29T18:05:09.793Z,8.57
2018-11-29T18:07:38.161Z,11.30
2018-11-29T18:10:11.913Z,5.93
2018-11-29T18:12:40.255Z,8.70
2018-11-29T18:15:14.699Z,6.67
2018-11-29T18:17:43.087Z,7.63
2018-11-29T18:20:12.160Z,7.93
